createdAt,value
2018-05-14T00:00:06.624Z,5.80
2018-05-14T00:00:40.084Z,6.03
2018-05-14T00:01:14.315Z,6.20
2018-05-14T00:01:47.807Z,7.03
2018-05-14T00:02:21.287Z,6.47
2018-05-14T00:02:54.752Z,6.30
2018-05-14T00:03:28.979Z,6.00
2018-05-14T00:04:02.435Z,5.83
2018-05-14T00:04:36.651Z,6.10
2018-05-14T00:05:10.159Z,6.57
2018-05-14T00:05:43.647Z,6.50
2018-05-14T00:06:17.114Z,5.60
2018-05-14T00:06:50.581Z,5.73
2018-05-14T00:07:24.817Z,5.30
2018-05-14T00:07:58.291Z,5.80
2018-05-14T00:08:31.767Z,6.70
2018-05-14T00:09:06.715Z,5.67
2018-05-14T00:09:40.191Z,6.10
2018-05-14T00:10:13.717Z,6.00
2018-05-14T00:10:47.208Z,5.53
2018-05-14T00:11:21.441Z,6.37
2018-05-14T00:11:54.917Z,7.17
2018-05-14T00:12:29.144Z,6.23
2018-05-14T00:13:02.605Z,6.10
2018-05-14T00:13:36.497Z,6.63
2018-05-14T00:14:10.717Z,5.70
2018-05-14T00:14:44.181Z,6.60
2018-05-14T00:15:18.477Z,6.00
2018-05-14T00:15:52.705Z,5.50
2018-05-14T00:16:26.173Z,6.30
2018-05-14T00:17:00.400Z,6.60
2018-05-14T00:17:33.861Z,5.47
2018-05-14T00:18:08.097Z,6.63
2018-05-14T00:18:41.566Z,6.07
2018-05-14T00:19:15.024Z,5.77
2018-05-14T00:19:49.269Z,6.13
2018-05-14T00:20:22.755Z,7.47
2018-05-14T00:20:56.263Z,6.40
2018-05-14T00:21:29.384Z,5.97
2018-05-14T00:22:03.609Z,5.90
2018-05-14T00:22:37.058Z,5.87
2018-05-14T00:23:11.345Z,6.30
2018-05-14T00:23:44.821Z,6.83
2018-05-14T00:24:18.420Z,5.63
2018-05-14T00:24:53.610Z,5.93
2018-05-14T00:25:27.117Z,6.27
2018-05-14T00:26:00.581Z,5.63
2018-05-14T00:26:35.387Z,5.10
2018-05-14T00:27:08.851Z,6.10
2018-05-14T00:27:42.983Z,5.70
2018-05-14T00:28:16.449Z,5.80
2018-05-14T00:28:49.919Z,6.40
2018-05-14T00:29:23.376Z,6.60
2018-05-14T00:29:57.605Z,5.90
2018-05-14T00:30:31.111Z,5.87
2018-05-14T00:31:04.561Z,6.07
2018-05-14T00:31:38.781Z,6.27
2018-05-14T00:32:12.275Z,5.70
2018-05-14T00:32:45.752Z,6.10
2018-05-14T00:33:19.215Z,5.80
2018-05-14T00:33:53.449Z,5.27
2018-05-14T00:34:27.551Z,5.57
2018-05-14T00:35:00.996Z,6.00
2018-05-14T00:35:35.233Z,6.00
2018-05-14T00:36:08.711Z,5.70
2018-05-14T00:36:42.191Z,6.80
2018-05-14T00:37:15.649Z,6.13
2018-05-14T00:37:49.929Z,5.77
2018-05-14T00:38:23.377Z,5.70
2018-05-14T00:38:56.877Z,5.70
2018-05-14T00:39:30.315Z,6.13
2018-05-14T00:40:04.538Z,6.70
2018-05-14T00:40:38.033Z,6.20
2018-05-14T00:41:11.507Z,5.63
2018-05-14T00:41:44.972Z,6.50
2018-05-14T00:42:19.274Z,6.10
2018-05-14T00:42:53.508Z,6.03
2018-05-14T00:43:26.970Z,6.20
2018-05-14T00:44:00.465Z,5.93
2018-05-14T00:44:33.962Z,6.27
2018-05-14T00:45:07.437Z,6.17
2018-05-14T00:45:40.955Z,5.80
2018-05-14T00:46:14.470Z,6.37
2018-05-14T00:46:47.943Z,6.50
2018-05-14T00:47:21.421Z,5.93
2018-05-14T00:47:54.882Z,5.80
2018-05-14T00:48:28.375Z,6.10
2018-05-14T00:49:01.915Z,6.13
2018-05-14T00:49:36.159Z,5.73
2018-05-14T00:50:09.647Z,6.23
2018-05-14T00:50:43.171Z,5.60
2018-05-14T00:51:16.660Z,6.27
2018-05-14T00:51:50.400Z,5.60
2018-05-14T00:52:23.858Z,5.90
2018-05-14T00:52:57.313Z,5.50
2018-05-14T00:53:30.781Z,5.63
2018-05-14T00:54:04.237Z,6.60
2018-05-14T00:54:37.049Z,5.60
2018-05-14T00:55:17.756Z,5.40
2018-05-14T00:55:51.265Z,5.57
2018-05-14T00:56:24.733Z,6.47
2018-05-14T00:56:58.213Z,6.43
2018-05-14T00:57:31.677Z,6.10
2018-05-14T00:58:04.825Z,7.00
2018-05-14T00:58:38.283Z,6.30
2018-05-14T00:59:11.771Z,6.30
2018-05-14T00:59:45.258Z,6.20
2018-05-14T01:00:18.393Z,5.30
2018-05-14T01:00:51.923Z,5.80
2018-05-14T01:01:25.400Z,5.90
2018-05-14T01:01:58.895Z,5.37
2018-05-14T01:02:32.357Z,6.37
2018-05-14T01:03:05.877Z,5.70
2018-05-14T01:03:39.346Z,5.93
2018-05-14T01:04:12.823Z,6.23
2018-05-14T01:04:46.365Z,5.53
2018-05-14T01:05:20.641Z,6.70
2018-05-14T01:05:54.173Z,5.97
2018-05-14T01:06:27.693Z,6.27
2018-05-14T01:07:02.077Z,5.47
2018-05-14T01:07:35.527Z,5.70
2018-05-14T01:08:09.783Z,6.13
2018-05-14T01:08:43.272Z,6.30
2018-05-14T01:09:16.746Z,6.20
2018-05-14T01:09:50.211Z,5.60
2018-05-14T01:10:23.681Z,5.47
2018-05-14T01:10:57.193Z,5.63
2018-05-14T01:11:30.669Z,6.27
2018-05-14T01:12:04.133Z,5.27
2018-05-14T01:12:37.613Z,5.77
2018-05-14T01:13:11.845Z,5.73
2018-05-14T01:13:45.313Z,6.73
2018-05-14T01:14:18.468Z,6.20
2018-05-14T01:14:52.710Z,6.20
2018-05-14T01:15:26.179Z,6.23
2018-05-14T01:15:59.661Z,5.80
2018-05-14T01:16:33.151Z,5.60
2018-05-14T01:17:06.627Z,5.80
2018-05-14T01:17:40.099Z,5.87
2018-05-14T01:18:14.344Z,5.50
2018-05-14T01:18:47.827Z,6.37
2018-05-14T01:19:21.321Z,6.40
2018-05-14T01:19:54.792Z,5.77
2018-05-14T01:20:28.265Z,5.73
2018-05-14T01:21:01.749Z,5.53
2018-05-14T01:21:35.223Z,5.70
2018-05-14T01:22:08.699Z,5.93
2018-05-14T01:22:42.937Z,6.33
2018-05-14T01:23:16.399Z,5.80
2018-05-14T01:23:50.167Z,5.40
2018-05-14T01:24:24.417Z,5.50
2018-05-14T01:25:03.811Z,5.80
2018-05-14T01:25:37.317Z,5.93
2018-05-14T01:26:10.839Z,6.27
2018-05-14T01:26:44.315Z,6.10
2018-05-14T01:27:17.779Z,5.40
2018-05-14T01:27:50.909Z,6.10
2018-05-14T01:28:25.129Z,5.70
2018-05-14T01:28:58.605Z,5.40
2018-05-14T01:29:32.843Z,5.80
2018-05-14T01:30:06.314Z,6.60
2018-05-14T01:30:39.789Z,6.30
2018-05-14T01:31:13.285Z,6.00
2018-05-14T01:31:46.761Z,7.10
2018-05-14T01:32:20.240Z,6.00
2018-05-14T01:32:53.729Z,5.43
2018-05-14T01:33:27.209Z,5.80
2018-05-14T01:34:01.129Z,5.90
2018-05-14T01:34:34.599Z,5.50
2018-05-14T01:35:07.757Z,5.43
2018-05-14T01:35:41.747Z,6.30
2018-05-14T01:36:16.022Z,6.33
2018-05-14T01:36:49.665Z,6.40
2018-05-14T01:37:23.148Z,5.80
2018-05-14T01:37:56.631Z,6.17
2018-05-14T01:38:30.101Z,5.87
2018-05-14T01:39:03.423Z,6.10
2018-05-14T01:39:36.893Z,6.20
2018-05-14T01:40:10.389Z,6.47
2018-05-14T01:40:43.855Z,5.83
2018-05-14T01:41:17.361Z,6.23
2018-05-14T01:41:50.826Z,6.43
2018-05-14T01:42:24.304Z,6.33
2018-05-14T01:42:58.525Z,6.40
2018-05-14T01:43:31.993Z,7.03
2018-05-14T01:44:05.475Z,6.83
2018-05-14T01:44:38.977Z,6.40
2018-05-14T01:45:12.465Z,6.20
2018-05-14T01:45:45.951Z,6.70
2018-05-14T01:46:19.465Z,6.97
2018-05-14T01:46:52.933Z,6.77
2018-05-14T01:47:26.405Z,6.87
2018-05-14T01:47:59.870Z,6.53
2018-05-14T01:48:33.333Z,6.23
2018-05-14T01:49:07.589Z,6.20
2018-05-14T01:49:41.043Z,6.10
2018-05-14T01:50:14.175Z,5.50
2018-05-14T01:50:47.655Z,5.90
2018-05-14T01:51:21.142Z,6.20
2018-05-14T01:51:54.619Z,5.87
2018-05-14T01:52:28.102Z,5.70
2018-05-14T01:53:01.555Z,5.10
2018-05-14T01:53:35.029Z,5.53
2018-05-14T01:54:09.252Z,5.60
2018-05-14T01:54:42.377Z,6.00
2018-05-14T01:55:15.529Z,5.90
2018-05-14T01:55:48.990Z,5.83
2018-05-14T01:56:22.505Z,6.50
2018-05-14T01:56:55.987Z,5.90
2018-05-14T01:57:29.452Z,6.10
2018-05-14T01:58:02.935Z,5.67
2018-05-14T01:58:36.064Z,4.97
2018-05-14T01:59:10.305Z,5.63
2018-05-14T01:59:43.775Z,5.70
2018-05-14T02:00:18.014Z,6.77
2018-05-14T02:00:51.485Z,5.67
2018-05-14T02:01:25.001Z,6.17
2018-05-14T02:01:58.471Z,5.93
2018-05-14T02:02:31.938Z,6.00
2018-05-14T02:03:05.422Z,6.40
2018-05-14T02:03:38.890Z,5.60
2018-05-14T02:04:12.351Z,6.60
2018-05-14T02:04:46.593Z,5.33
2018-05-14T02:05:20.180Z,6.23
2018-05-14T02:05:53.647Z,5.77
2018-05-14T02:06:27.154Z,5.50
2018-05-14T02:07:00.297Z,6.60
2018-05-14T02:07:34.544Z,6.33
2018-05-14T02:08:08.022Z,6.20
2018-05-14T02:08:41.497Z,5.57
2018-05-14T02:09:14.977Z,6.23
2018-05-14T02:09:48.481Z,6.03
2018-05-14T02:10:21.959Z,5.50
2018-05-14T02:10:55.444Z,5.60
2018-05-14T02:11:28.961Z,6.20
2018-05-14T02:12:02.105Z,6.83
2018-05-14T02:12:35.585Z,5.87
2018-05-14T02:13:09.071Z,6.17
2018-05-14T02:13:42.558Z,6.10
2018-05-14T02:14:16.020Z,5.90
2018-05-14T02:14:50.253Z,6.20
2018-05-14T02:15:23.732Z,5.63
2018-05-14T02:15:57.215Z,6.40
2018-05-14T02:16:30.698Z,6.10
2018-05-14T02:17:03.839Z,5.80
2018-05-14T02:17:38.077Z,5.97
2018-05-14T02:18:11.531Z,6.30
2018-05-14T02:18:45.763Z,5.70
2018-05-14T02:19:19.237Z,6.00
2018-05-14T02:19:52.713Z,5.57
2018-05-14T02:20:26.940Z,6.17
2018-05-14T02:21:00.403Z,6.23
2018-05-14T02:21:33.906Z,5.70
2018-05-14T02:22:07.371Z,5.40
2018-05-14T02:22:40.829Z,5.80
2018-05-14T02:23:14.301Z,5.70
2018-05-14T02:23:47.785Z,5.97
2018-05-14T02:24:21.022Z,6.30
2018-05-14T02:24:54.155Z,6.53
2018-05-14T02:25:27.689Z,6.70
2018-05-14T02:26:01.173Z,5.77
2018-05-14T02:26:34.691Z,5.93
2018-05-14T02:27:08.560Z,5.97
2018-05-14T02:27:42.032Z,5.37
2018-05-14T02:28:15.500Z,6.87
2018-05-14T02:28:49.722Z,5.83
2018-05-14T02:29:23.221Z,5.57
2018-05-14T02:29:56.869Z,5.83
2018-05-14T02:30:31.109Z,6.17
2018-05-14T02:31:04.254Z,5.50
2018-05-14T02:31:38.538Z,5.50
2018-05-14T02:32:12.013Z,6.10
2018-05-14T02:32:45.501Z,5.40
2018-05-14T02:33:19.743Z,5.97
2018-05-14T02:33:53.212Z,5.53
2018-05-14T02:34:28.678Z,5.97
2018-05-14T02:35:02.146Z,6.10
2018-05-14T02:35:35.632Z,6.27
2018-05-14T02:36:09.113Z,5.90
2018-05-14T02:36:42.614Z,6.37
2018-05-14T02:37:16.309Z,5.63
2018-05-14T02:37:49.774Z,6.40
2018-05-14T02:38:23.247Z,6.50
2018-05-14T02:38:56.728Z,6.33
2018-05-14T02:39:30.964Z,5.63
2018-05-14T02:40:04.108Z,6.40
2018-05-14T02:40:38.337Z,6.00
2018-05-14T02:41:11.815Z,5.70
2018-05-14T02:41:45.305Z,5.50
2018-05-14T02:42:18.439Z,5.40
2018-05-14T02:42:51.910Z,6.57
2018-05-14T02:43:25.400Z,6.23
2018-05-14T02:43:58.861Z,6.33
2018-05-14T02:44:32.315Z,6.17
2018-05-14T02:45:05.114Z,5.90
2018-05-14T02:45:38.680Z,5.80
2018-05-14T02:46:11.810Z,6.60
2018-05-14T02:46:46.466Z,5.87
2018-05-14T02:47:19.932Z,6.10
2018-05-14T02:47:53.423Z,6.50
2018-05-14T02:48:26.878Z,6.50
2018-05-14T02:49:01.102Z,5.40
2018-05-14T02:49:34.578Z,6.20
2018-05-14T02:50:08.501Z,6.43
2018-05-14T02:50:41.968Z,5.83
2018-05-14T02:51:15.432Z,6.23
2018-05-14T02:51:49.693Z,5.70
2018-05-14T02:52:23.179Z,6.90
2018-05-14T02:52:56.636Z,5.70
2018-05-14T02:53:30.106Z,6.10
2018-05-14T02:54:04.324Z,5.90
2018-05-14T02:54:37.813Z,5.47
2018-05-14T02:55:11.282Z,6.00
2018-05-14T02:55:44.747Z,6.30
2018-05-14T02:56:18.982Z,6.37
2018-05-14T02:56:52.475Z,6.20
2018-05-14T02:57:25.950Z,6.60
2018-05-14T02:57:59.417Z,6.60
2018-05-14T02:58:33.656Z,5.87
2018-05-14T02:59:07.138Z,6.60
2018-05-14T02:59:40.604Z,5.80
2018-05-14T03:00:13.737Z,5.27
2018-05-14T03:00:47.217Z,5.40
2018-05-14T03:01:20.668Z,6.53
2018-05-14T03:01:54.273Z,6.30
2018-05-14T03:02:27.920Z,6.00
2018-05-14T03:03:01.398Z,6.60
2018-05-14T03:03:35.616Z,6.80
2018-05-14T03:04:08.420Z,5.90
2018-05-14T03:04:41.882Z,5.47
2018-05-14T03:05:15.342Z,5.97
2018-05-14T03:05:48.824Z,5.70
2018-05-14T03:06:22.291Z,5.83
2018-05-14T03:06:55.770Z,6.83
2018-05-14T03:07:29.231Z,6.70
2018-05-14T03:08:02.693Z,6.83
2018-05-14T03:08:35.832Z,6.50
2018-05-14T03:09:09.733Z,5.90
2018-05-14T03:09:43.962Z,5.73
2018-05-14T03:10:17.440Z,6.50
2018-05-14T03:10:50.914Z,6.53
2018-05-14T03:11:24.388Z,5.73
2018-05-14T03:11:58.644Z,6.50
2018-05-14T03:12:32.114Z,6.00
2018-05-14T03:13:05.246Z,6.73
2018-05-14T03:13:39.496Z,6.00
2018-05-14T03:14:12.968Z,6.13
2018-05-14T03:14:46.102Z,6.73
2018-05-14T03:15:20.348Z,6.63
2018-05-14T03:15:53.826Z,6.60
2018-05-14T03:16:27.290Z,5.20
2018-05-14T03:17:01.546Z,6.83
2018-05-14T03:17:35.014Z,6.60
2018-05-14T03:18:08.493Z,5.53
2018-05-14T03:18:41.983Z,7.00
2018-05-14T03:19:15.974Z,6.23
2018-05-14T03:19:49.461Z,7.17
2018-05-14T03:20:22.946Z,7.50
2018-05-14T03:20:56.433Z,6.83
2018-05-14T03:21:29.910Z,8.47
2018-05-14T03:22:03.419Z,6.93
2018-05-14T03:22:36.890Z,6.50
2018-05-14T03:23:10.366Z,7.77
2018-05-14T03:23:43.861Z,8.00
2018-05-14T03:24:17.322Z,7.87
2018-05-14T03:24:50.790Z,7.50
2018-05-14T03:25:25.023Z,7.60
2018-05-14T03:25:58.518Z,8.17
2018-05-14T03:26:31.428Z,8.27
2018-05-14T03:27:04.935Z,7.93
2018-05-14T03:27:39.195Z,7.20
2018-05-14T03:28:12.658Z,6.27
2018-05-14T03:28:46.126Z,6.90
2018-05-14T03:29:19.625Z,7.23
2018-05-14T03:29:53.106Z,7.43
2018-05-14T03:30:26.600Z,7.00
2018-05-14T03:31:00.098Z,6.70
2018-05-14T03:31:33.602Z,6.10
2018-05-14T03:32:07.114Z,6.30
2018-05-14T03:32:41.360Z,6.60
2018-05-14T03:33:14.838Z,6.87
2018-05-14T03:33:48.305Z,6.77
2018-05-14T03:34:22.535Z,7.27
2018-05-14T03:34:56.010Z,8.30
2018-05-14T03:35:29.489Z,7.40
2018-05-14T03:36:02.986Z,7.03
2018-05-14T03:36:36.468Z,7.33
2018-05-14T03:37:10.018Z,7.80
2018-05-14T03:37:44.066Z,8.30
2018-05-14T03:38:17.532Z,8.40
2018-05-14T03:38:50.988Z,8.00
2018-05-14T03:39:25.218Z,8.30
2018-05-14T03:39:58.526Z,8.10
2018-05-14T03:40:32.000Z,8.77
2018-05-14T03:41:05.475Z,6.97
2018-05-14T03:41:38.958Z,8.07
2018-05-14T03:42:12.460Z,6.83
2018-05-14T03:42:45.918Z,7.50
2018-05-14T03:43:19.373Z,7.93
2018-05-14T03:43:53.610Z,6.70
2018-05-14T03:44:27.066Z,7.60
2018-05-14T03:45:00.954Z,6.60
2018-05-14T03:45:35.192Z,7.20
2018-05-14T03:46:08.338Z,7.33
2018-05-14T03:46:42.570Z,6.97
2018-05-14T03:47:16.088Z,7.30
2018-05-14T03:47:49.558Z,7.53
2018-05-14T03:48:23.030Z,7.10
2018-05-14T03:48:56.490Z,7.70
2018-05-14T03:49:30.712Z,7.23
2018-05-14T03:50:03.842Z,8.43
2018-05-14T03:50:37.321Z,8.20
2018-05-14T03:51:10.798Z,7.60
2018-05-14T03:51:44.265Z,7.60
2018-05-14T03:52:17.973Z,7.40
2018-05-14T03:52:51.504Z,6.43
2018-05-14T03:53:24.976Z,6.97
2018-05-14T03:53:59.244Z,6.67
2018-05-14T03:54:32.730Z,7.23
2018-05-14T03:55:06.196Z,6.93
2018-05-14T03:55:39.666Z,6.00
2018-05-14T03:56:13.148Z,6.43
2018-05-14T03:56:46.604Z,6.10
2018-05-14T03:57:20.890Z,5.90
2018-05-14T03:57:54.373Z,5.27
2018-05-14T03:58:39.134Z,6.77
2018-05-14T03:59:24.375Z,6.07
2018-05-14T04:00:09.123Z,5.73
2018-05-14T04:00:54.514Z,5.13
2018-05-14T04:01:39.798Z,5.70
2018-05-14T04:03:32.447Z,6.00
2018-05-14T04:04:17.172Z,5.80
2018-05-14T04:05:02.633Z,5.37
2018-05-14T04:05:59.770Z,5.60
2018-05-14T04:07:22.358Z,5.80
2018-05-14T04:07:55.878Z,5.40
2018-05-14T04:08:29.402Z,5.83
2018-05-14T04:09:02.813Z,5.17
2018-05-14T04:09:36.289Z,5.70
2018-05-14T04:10:09.780Z,6.10
2018-05-14T04:10:43.250Z,5.40
2018-05-14T04:11:16.749Z,6.00
2018-05-14T04:11:50.258Z,5.60
2018-05-14T04:12:23.730Z,6.00
2018-05-14T04:12:57.251Z,5.73
2018-05-14T04:13:31.500Z,6.13
2018-05-14T04:14:04.972Z,5.77
2018-05-14T04:14:38.460Z,6.10
2018-05-14T04:15:11.923Z,5.73
2018-05-14T04:15:46.154Z,5.63
2018-05-14T04:16:19.659Z,5.03
2018-05-14T04:16:53.126Z,5.60
2018-05-14T04:17:26.587Z,5.90
2018-05-14T04:18:00.095Z,6.37
2018-05-14T04:18:33.563Z,4.90
2018-05-14T04:19:07.065Z,5.70
2018-05-14T04:19:40.554Z,6.27
2018-05-14T04:20:14.058Z,6.10
2018-05-14T04:20:47.551Z,6.37
2018-05-14T04:21:21.029Z,5.70
2018-05-14T04:21:54.493Z,5.60
2018-05-14T04:22:27.991Z,5.90
2018-05-14T04:23:01.523Z,6.30
2018-05-14T04:23:35.768Z,6.20
2018-05-14T04:24:08.573Z,5.83
2018-05-14T04:24:42.081Z,5.20
2018-05-14T04:25:16.587Z,6.00
2018-05-14T04:25:50.856Z,6.37
2018-05-14T04:26:24.315Z,5.60
2018-05-14T04:26:57.797Z,5.83
2018-05-14T04:27:31.273Z,5.27
2018-05-14T04:28:04.801Z,6.07
2018-05-14T04:28:38.277Z,6.17
2018-05-14T04:29:11.769Z,6.20
2018-05-14T04:29:45.241Z,5.33
2018-05-14T04:30:18.771Z,6.20
2018-05-14T04:30:52.371Z,6.37
2018-05-14T04:31:26.599Z,6.97
2018-05-14T04:32:00.103Z,6.20
2018-05-14T04:32:33.593Z,6.20
2018-05-14T04:33:07.099Z,5.33
2018-05-14T04:33:40.581Z,6.33
2018-05-14T04:34:14.044Z,6.20
2018-05-14T04:34:47.519Z,6.20
2018-05-14T04:35:21.023Z,5.87
2018-05-14T04:35:54.509Z,4.90
2018-05-14T04:36:27.967Z,6.30
2018-05-14T04:37:01.429Z,5.77
2018-05-14T04:37:34.907Z,5.43
2018-05-14T04:38:09.173Z,5.93
2018-05-14T04:38:43.224Z,5.73
2018-05-14T04:39:16.695Z,6.00
2018-05-14T04:39:50.947Z,5.40
2018-05-14T04:40:24.439Z,6.03
2018-05-14T04:40:57.917Z,5.50
2018-05-14T04:41:31.406Z,4.90
2018-05-14T04:42:04.889Z,6.10
2018-05-14T04:42:38.391Z,6.13
2018-05-14T04:43:11.913Z,4.97
2018-05-14T04:43:46.141Z,5.60
2018-05-14T04:44:20.258Z,5.63
2018-05-14T04:44:53.754Z,5.97
2018-05-14T04:45:27.218Z,6.50
2018-05-14T04:46:00.681Z,5.97
2018-05-14T04:46:34.150Z,5.80
2018-05-14T04:47:08.387Z,5.37
2018-05-14T04:47:41.860Z,5.87
2018-05-14T04:48:15.361Z,5.50
2018-05-14T04:48:48.815Z,5.33
2018-05-14T04:49:22.295Z,5.67
2018-05-14T04:49:56.529Z,5.27
2018-05-14T04:50:30.180Z,5.67
2018-05-14T04:51:04.419Z,5.63
2018-05-14T04:51:37.933Z,4.87
2018-05-14T04:52:11.426Z,5.63
2018-05-14T04:52:45.688Z,5.53
2018-05-14T04:53:19.197Z,5.90
2018-05-14T04:53:52.660Z,5.03
2018-05-14T04:54:26.139Z,5.03
2018-05-14T04:54:59.603Z,5.30
2018-05-14T04:55:33.850Z,4.87
2018-05-14T04:56:07.342Z,5.70
2018-05-14T04:56:40.813Z,4.97
2018-05-14T04:57:14.826Z,5.33
2018-05-14T04:57:48.309Z,5.20
2018-05-14T04:58:21.811Z,5.90
2018-05-14T04:58:55.286Z,6.07
2018-05-14T04:59:28.769Z,5.60
2018-05-14T05:00:02.241Z,5.43
2018-05-14T05:00:35.735Z,5.10
2018-05-14T05:01:09.224Z,5.40
2018-05-14T05:01:42.699Z,5.97
2018-05-14T05:02:16.166Z,5.97
2018-05-14T05:02:49.624Z,5.50
2018-05-14T05:03:23.133Z,5.80
2018-05-14T05:03:56.589Z,5.93
2018-05-14T05:04:30.841Z,5.23
2018-05-14T05:05:04.322Z,5.60
2018-05-14T05:05:38.052Z,5.70
2018-05-14T05:06:12.278Z,5.50
2018-05-14T05:06:45.413Z,5.70
2018-05-14T05:07:18.883Z,5.70
2018-05-14T05:07:52.349Z,5.70
2018-05-14T05:08:25.853Z,5.40
2018-05-14T05:08:59.343Z,5.70
2018-05-14T05:09:32.827Z,5.80
2018-05-14T05:10:06.308Z,6.10
2018-05-14T05:10:39.787Z,5.20
2018-05-14T05:11:13.276Z,5.80
2018-05-14T05:11:46.762Z,5.50
2018-05-14T05:12:20.249Z,5.40
2018-05-14T05:12:53.749Z,5.30
2018-05-14T05:13:27.254Z,5.33
2018-05-14T05:14:01.508Z,5.03
2018-05-14T05:14:35.011Z,5.57
2018-05-14T05:15:08.549Z,5.70
2018-05-14T05:15:42.038Z,5.87
2018-05-14T05:16:15.535Z,5.37
2018-05-14T05:16:49.026Z,6.30
2018-05-14T05:17:22.554Z,6.70
2018-05-14T05:17:56.028Z,5.90
2018-05-14T05:18:29.512Z,6.30
2018-05-14T05:19:02.999Z,6.90
2018-05-14T05:19:36.480Z,6.50
2018-05-14T05:20:09.960Z,5.70
2018-05-14T05:20:43.480Z,5.83
2018-05-14T05:21:17.719Z,5.37
2018-05-14T05:21:51.187Z,5.60
2018-05-14T05:22:24.829Z,4.97
2018-05-14T05:22:58.405Z,5.13
2018-05-14T05:23:31.992Z,5.03
2018-05-14T05:24:05.478Z,6.30
2018-05-14T05:24:38.940Z,5.27
2018-05-14T05:25:12.406Z,5.43
2018-05-14T05:25:45.889Z,4.77
2018-05-14T05:26:19.379Z,5.43
2018-05-14T05:26:52.909Z,6.23
2018-05-14T05:27:26.395Z,4.93
2018-05-14T05:27:59.879Z,5.30
2018-05-14T05:28:33.417Z,5.00
2018-05-14T05:29:06.887Z,5.60
2018-05-14T05:29:41.129Z,5.63
2018-05-14T05:30:14.588Z,5.17
2018-05-14T05:30:48.057Z,5.43
2018-05-14T05:31:22.656Z,5.00
2018-05-14T05:31:56.891Z,5.57
2018-05-14T05:32:30.368Z,5.13
2018-05-14T05:33:04.628Z,4.80
2018-05-14T05:33:38.139Z,5.23
2018-05-14T05:34:12.366Z,4.70
2018-05-14T05:34:45.850Z,6.00
2018-05-14T05:35:19.333Z,5.20
2018-05-14T05:35:52.813Z,5.30
2018-05-14T05:36:27.039Z,6.10
2018-05-14T05:37:00.840Z,6.40
2018-05-14T05:37:34.311Z,6.00
2018-05-14T05:38:07.783Z,5.03
2018-05-14T05:38:41.284Z,5.20
2018-05-14T05:39:14.754Z,5.53
2018-05-14T05:39:47.911Z,5.70
2018-05-14T05:40:22.178Z,5.37
2018-05-14T05:40:55.677Z,5.90
2018-05-14T05:41:29.163Z,5.40
2018-05-14T05:42:02.665Z,5.37
2018-05-14T05:42:36.902Z,5.43
2018-05-14T05:43:10.368Z,5.50
2018-05-14T05:43:44.672Z,5.63
2018-05-14T05:44:19.017Z,5.30
2018-05-14T05:44:52.773Z,6.20
2018-05-14T05:45:27.004Z,5.07
2018-05-14T05:46:00.492Z,5.50
2018-05-14T05:46:33.974Z,6.20
2018-05-14T05:47:07.130Z,5.70
2018-05-14T05:47:40.613Z,5.53
2018-05-14T05:48:14.192Z,5.60
2018-05-14T05:48:48.442Z,5.00
2018-05-14T05:49:21.922Z,5.87
2018-05-14T05:49:55.392Z,5.20
2018-05-14T05:50:28.893Z,5.40
2018-05-14T05:51:02.353Z,5.83
2018-05-14T05:51:35.508Z,6.30
2018-05-14T05:52:09.846Z,6.30
2018-05-14T05:52:43.310Z,6.43
2018-05-14T05:53:16.782Z,6.60
2018-05-14T05:53:51.047Z,6.60
2018-05-14T05:54:24.518Z,5.80
2018-05-14T05:54:57.982Z,6.33
2018-05-14T05:55:31.437Z,6.63
2018-05-14T05:56:05.697Z,6.30
2018-05-14T05:56:39.195Z,6.27
2018-05-14T05:57:12.660Z,6.47
2018-05-14T05:57:46.301Z,5.87
2018-05-14T05:58:19.925Z,5.80
2018-05-14T05:58:53.122Z,5.80
2018-05-14T05:59:26.587Z,5.90
2018-05-14T06:00:00.092Z,5.70
2018-05-14T06:00:33.570Z,5.80
2018-05-14T06:01:07.034Z,5.90
2018-05-14T06:01:40.490Z,4.53
2018-05-14T06:02:14.740Z,4.97
2018-05-14T06:02:48.200Z,4.80
2018-05-14T06:03:21.672Z,5.37
2018-05-14T06:03:55.968Z,5.97
2018-05-14T06:04:30.227Z,5.40
2018-05-14T06:05:03.370Z,5.60
2018-05-14T06:05:36.520Z,5.00
2018-05-14T06:06:10.744Z,5.30
2018-05-14T06:06:44.213Z,5.83
2018-05-14T06:07:18.434Z,5.80
2018-05-14T06:07:51.917Z,6.07
2018-05-14T06:08:25.386Z,5.53
2018-05-14T06:08:59.670Z,5.73
2018-05-14T06:09:33.401Z,5.87
2018-05-14T06:10:06.993Z,5.77
2018-05-14T06:10:40.464Z,5.63
2018-05-14T06:11:13.963Z,5.63
2018-05-14T06:11:47.443Z,5.70
2018-05-14T06:12:20.905Z,6.20
2018-05-14T06:12:54.492Z,5.90
2018-05-14T06:13:28.752Z,5.47
2018-05-14T06:14:02.292Z,5.20
2018-05-14T06:14:35.769Z,5.60
2018-05-14T06:15:10.020Z,5.90
2018-05-14T06:15:43.505Z,4.87
2018-05-14T06:16:17.685Z,5.93
2018-05-14T06:16:51.176Z,5.50
2018-05-14T06:17:24.681Z,6.10
2018-05-14T06:17:58.137Z,5.37
2018-05-14T06:18:31.618Z,5.40
2018-05-14T06:19:04.874Z,5.43
2018-05-14T06:19:39.128Z,5.10
2018-05-14T06:20:13.370Z,5.80
2018-05-14T06:20:47.610Z,5.60
2018-05-14T06:21:21.091Z,5.57
2018-05-14T06:21:54.562Z,6.43
2018-05-14T06:22:28.815Z,6.27
2018-05-14T06:23:02.345Z,6.17
2018-05-14T06:23:36.621Z,5.20
2018-05-14T06:24:10.129Z,5.70
2018-05-14T06:24:43.577Z,6.20
2018-05-14T06:25:17.139Z,6.97
2018-05-14T06:25:51.032Z,5.73
2018-05-14T06:26:24.515Z,5.70
2018-05-14T06:26:57.998Z,6.30
2018-05-14T06:27:31.472Z,6.20
2018-05-14T06:28:04.957Z,5.27
2018-05-14T06:28:38.417Z,5.70
2018-05-14T06:29:12.712Z,6.47
2018-05-14T06:29:46.174Z,6.00
2018-05-14T06:30:19.670Z,6.40
2018-05-14T06:30:53.136Z,6.60
2018-05-14T06:31:26.816Z,6.20
2018-05-14T06:32:00.257Z,6.17
2018-05-14T06:32:34.510Z,6.33
2018-05-14T06:33:07.985Z,7.03
2018-05-14T06:33:41.459Z,6.10
2018-05-14T06:34:15.048Z,6.80
2018-05-14T06:34:48.539Z,7.00
2018-05-14T06:35:22.002Z,5.93
2018-05-14T06:35:55.492Z,6.60
2018-05-14T06:36:28.960Z,6.80
2018-05-14T06:37:02.458Z,5.93
2018-05-14T06:37:35.922Z,5.73
2018-05-14T06:38:10.178Z,6.20
2018-05-14T06:38:43.638Z,6.00
2018-05-14T06:39:17.145Z,6.27
2018-05-14T06:39:50.631Z,6.17
2018-05-14T06:40:24.117Z,6.27
2018-05-14T06:40:57.582Z,6.20
2018-05-14T06:41:31.094Z,5.50
2018-05-14T06:42:04.570Z,6.63
2018-05-14T06:42:38.038Z,6.30
2018-05-14T06:43:11.504Z,6.40
2018-05-14T06:43:44.990Z,6.20
2018-05-14T06:44:18.561Z,6.70
2018-05-14T06:44:52.254Z,6.23
2018-05-14T06:45:26.535Z,6.80
2018-05-14T06:46:00.078Z,6.50
2018-05-14T06:46:33.552Z,6.53
2018-05-14T06:47:07.044Z,6.27
2018-05-14T06:47:40.530Z,6.53
2018-05-14T06:48:14.016Z,5.93
2018-05-14T06:48:47.512Z,6.97
2018-05-14T06:49:21.032Z,6.20
2018-05-14T06:49:54.569Z,6.00
2018-05-14T06:50:28.189Z,5.90
2018-05-14T06:51:01.681Z,6.60
2018-05-14T06:51:35.134Z,6.70
2018-05-14T06:52:08.616Z,5.77
2018-05-14T06:52:42.092Z,6.33
2018-05-14T06:53:15.585Z,6.40
2018-05-14T06:53:49.052Z,6.27
2018-05-14T06:54:22.574Z,6.10
2018-05-14T06:54:56.087Z,6.50
2018-05-14T06:55:30.304Z,6.93
2018-05-14T06:56:03.854Z,6.40
2018-05-14T06:56:37.331Z,6.23
2018-05-14T06:57:10.783Z,5.90
2018-05-14T06:57:44.262Z,6.73
2018-05-14T06:58:18.516Z,6.57
2018-05-14T06:58:52.019Z,5.93
2018-05-14T06:59:25.591Z,6.60
2018-05-14T06:59:59.226Z,6.37
2018-05-14T07:00:32.712Z,5.57
2018-05-14T07:01:06.178Z,7.33
2018-05-14T07:01:40.432Z,6.80
2018-05-14T07:02:13.930Z,5.77
2018-05-14T07:02:47.390Z,6.87
2018-05-14T07:03:20.878Z,7.33
2018-05-14T07:03:54.366Z,6.73
2018-05-14T07:04:27.866Z,6.60
2018-05-14T07:05:01.334Z,7.20
2018-05-14T07:05:34.857Z,7.20
2018-05-14T07:06:09.080Z,7.10
2018-05-14T07:06:43.342Z,6.60
2018-05-14T07:07:16.824Z,6.90
2018-05-14T07:07:50.288Z,7.47
2018-05-14T07:08:23.822Z,5.67
2018-05-14T07:08:57.282Z,6.37
2018-05-14T07:09:30.791Z,6.23
2018-05-14T07:10:03.571Z,6.63
2018-05-14T07:10:37.819Z,6.30
2018-05-14T07:11:11.382Z,6.83
2018-05-14T07:11:45.648Z,5.77
2018-05-14T07:12:19.135Z,6.33
2018-05-14T07:12:52.606Z,7.13
2018-05-14T07:13:26.124Z,7.17
2018-05-14T07:14:00.359Z,7.13
2018-05-14T07:14:33.852Z,6.10
2018-05-14T07:15:07.340Z,6.77
2018-05-14T07:15:40.830Z,6.50
2018-05-14T07:16:14.325Z,6.70
2018-05-14T07:16:47.798Z,6.70
2018-05-14T07:17:21.278Z,6.70
2018-05-14T07:17:54.746Z,6.30
2018-05-14T07:18:28.219Z,6.20
2018-05-14T07:19:02.252Z,6.80
2018-05-14T07:19:35.844Z,6.97
2018-05-14T07:20:09.477Z,6.97
2018-05-14T07:20:42.950Z,6.27
2018-05-14T07:21:16.414Z,6.97
2018-05-14T07:21:49.880Z,6.50
2018-05-14T07:22:23.356Z,6.20
2018-05-14T07:22:56.835Z,6.40
2018-05-14T07:23:30.091Z,6.60
2018-05-14T07:24:04.294Z,6.80
2018-05-14T07:24:38.654Z,6.70
2018-05-14T07:25:12.136Z,7.10
2018-05-14T07:25:45.591Z,6.63
2018-05-14T07:26:19.068Z,7.30
2018-05-14T07:26:52.202Z,7.37
2018-05-14T07:27:25.696Z,6.53
2018-05-14T07:27:59.176Z,6.43
2018-05-14T07:28:32.658Z,6.70
2018-05-14T07:29:06.136Z,7.50
2018-05-14T07:29:39.651Z,6.90
2018-05-14T07:30:13.961Z,7.53
2018-05-14T07:30:47.596Z,7.23
2018-05-14T07:31:21.074Z,6.70